Time;durP1;ratioP1;P1;durP2;ratioP2;P2;SDS_P1;SDS_P2;PMS_P1;PMS_P2;Temp;Humidity;BMP_temperature;BMP_pressure;BME280_temperature;BME280_humidity;BME280_pressure;Samples;Min_cycle;Max_cycle;Signal;HPM_P1;HPM_P2
2023/10/26 00:02:04;;;;;;;0.67;0.60;;;;;;;12.88;100.00;94614.94;5036346;28;20197;-69
2023/10/26 00:04:31;;;;;;;0.63;0.60;;;;;;;12.99;100.00;94616.78;5036953;28;20217;-70
2023/10/26 00:06:58;;;;;;;0.37;0.37;;;;;;;12.96;100.00;94617.25;5036400;28;20587;-70
2023/10/26 00:09:26;;;;;;;0.50;0.50;;;;;;;12.96;100.00;94606.69;5036519;28;20251;-69
2023/10/26 00:11:53;;;;;;;0.30;0.30;;;;;;;12.89;100.00;94613.91;5035640;28;20209;-69
2023/10/26 00:14:19;;;;;;;0.40;0.40;;;;;;;12.81;100.00;94606.28;5036904;28;20228;-69
2023/10/26 00:16:46;;;;;;;0.80;0.50;;;;;;;12.89;100.00;94605.97;5035139;28;20271;-69
2023/10/26 00:19:12;;;;;;;0.73;0.40;;;;;;;12.95;100.00;94611.16;5036870;28;20212;-69
2023/10/26 00:21:41;;;;;;;0.53;0.40;;;;;;;12.94;100.00;94608.75;5035720;28;20201;-70
2023/10/26 00:24:08;;;;;;;0.63;0.50;;;;;;;12.96;100.00;94601.41;5036473;28;20221;-70
2023/10/26 00:26:36;;;;;;;0.57;0.43;;;;;;;12.91;100.00;94604.72;5036482;28;20582;-69
2023/10/26 00:29:03;;;;;;;0.73;0.37;;;;;;;12.76;100.00;94608.03;5035883;28;20225;-69
2023/10/26 00:31:29;;;;;;;0.63;0.63;;;;;;;12.80;100.00;94607.31;5035910;28;20205;-69
2023/10/26 00:33:56;;;;;;;1.33;0.50;;;;;;;12.80;100.00;94604.69;5035875;28;20597;-69
2023/10/26 00:36:22;;;;;;;0.30;0.30;;;;;;;12.85;100.00;94607.44;5037061;28;20211;-69
2023/10/26 00:38:49;;;;;;;0.50;0.50;;;;;;;12.85;100.00;94608.28;5035681;28;20201;-69
2023/10/26 00:41:15;;;;;;;0.47;0.40;;;;;;;12.69;100.00;94608.16;5035213;28;20201;-69
2023/10/26 00:43:43;;;;;;;0.50;0.50;;;;;;;12.79;100.00;94611.81;5035406;28;20208;-69
2023/10/26 00:46:10;;;;;;;0.40;0.40;;;;;;;12.58;100.00;94611.56;5036568;28;20205;-70
2023/10/26 00:48:37;;;;;;;0.50;0.43;;;;;;;12.66;100.00;94616.50;5034872;28;20236;-69
2023/10/26 00:51:04;;;;;;;0.50;0.50;;;;;;;12.61;100.00;94619.03;5036239;28;21411;-69
2023/10/26 00:53:31;;;;;;;0.40;0.40;;;;;;;12.72;100.00;94620.88;5035806;28;20201;-69
2023/10/26 00:55:57;;;;;;;0.90;0.50;;;;;;;12.70;100.00;94619.50;5035747;28;20707;-69
2023/10/26 00:58:26;;;;;;;0.70;0.40;;;;;;;12.70;100.00;94625.59;5035464;28;20663;-69
2023/10/26 01:00:54;;;;;;;0.43;0.43;;;;;;;12.77;100.00;94629.72;5034790;28;20213;-69
2023/10/26 01:03:21;;;;;;;0.40;0.40;;;;;;;12.80;100.00;94628.47;5035631;28;20206;-69
2023/10/26 01:05:48;;;;;;;0.40;0.30;;;;;;;12.56;100.00;94629.47;5035206;28;20228;-70
2023/10/26 01:08:14;;;;;;;0.40;0.40;;;;;;;12.53;100.00;94635.22;5035040;28;20850;-69
2023/10/26 01:10:41;;;;;;;0.30;0.30;;;;;;;12.59;100.00;94636.97;5034546;28;20235;-70
2023/10/26 01:13:08;;;;;;;0.53;0.40;;;;;;;12.48;100.00;94624.53;5035916;28;20208;-70
2023/10/26 01:15:35;;;;;;;0.40;0.30;;;;;;;12.53;100.00;94622.00;5036037;28;20231;-69
2023/10/26 01:18:03;;;;;;;0.87;0.50;;;;;;;12.64;100.00;94623.88;5035864;28;20200;-69
2023/10/26 01:20:29;;;;;;;0.40;0.40;;;;;;;12.39;100.00;94619.81;5035322;28;20206;-69
2023/10/26 01:22:57;;;;;;;1.07;0.60;;;;;;;12.60;100.00;94612.16;5035146;28;20205;-70
2023/10/26 01:25:24;;;;;;;0.40;0.40;;;;;;;12.30;100.00;94616.66;5035797;28;21439;-70
2023/10/26 01:27:50;;;;;;;0.57;0.53;;;;;;;12.20;100.00;94613.78;5034706;28;20209;-69
2023/10/26 01:30:17;;;;;;;0.37;0.37;;;;;;;12.35;100.00;94614.16;5034817;28;20224;-69
2023/10/26 01:32:44;;;;;;;0.30;0.30;;;;;;;12.29;100.00;94614.25;5035568;28;20211;-69
2023/10/26 01:35:11;;;;;;;0.30;0.30;;;;;;;12.36;100.00;94621.06;5035607;28;20229;-70
2023/10/26 01:37:38;;;;;;;0.50;0.50;;;;;;;12.52;100.00;94604.53;5034397;28;20723;-69
2023/10/26 01:40:08;;;;;;;0.30;0.30;;;;;;;12.53;100.00;94602.72;5035434;28;20204;-69
2023/10/26 01:42:35;;;;;;;0.40;0.40;;;;;;;12.48;100.00;94600.75;5035499;28;20235;-69
2023/10/26 01:45:01;;;;;;;0.50;0.50;;;;;;;12.30;100.00;94603.47;5034868;28;20217;-69
2023/10/26 01:47:28;;;;;;;0.73;0.57;;;;;;;12.29;100.00;94599.22;5036132;28;20551;-69
2023/10/26 01:49:55;;;;;;;0.50;0.40;;;;;;;12.15;100.00;94585.66;5034493;28;20719;-70
2023/10/26 01:52:21;;;;;;;1.30;0.50;;;;;;;12.02;100.00;94601.69;5035112;28;20205;-70
2023/10/26 01:54:49;;;;;;;0.67;0.40;;;;;;;12.09;100.00;94589.19;5034457;28;20235;-70
2023/10/26 01:57:17;;;;;;;0.40;0.40;;;;;;;12.22;100.00;94587.97;5035914;28;21225;-70
2023/10/26 01:59:44;;;;;;;0.40;0.40;;;;;;;12.04;100.00;94586.41;5034698;28;20590;-69
2023/10/26 02:02:10;;;;;;;0.40;0.40;;;;;;;12.16;100.00;94582.00;5034201;28;20205;-69
2023/10/26 02:04:37;;;;;;;0.40;0.37;;;;;;;12.28;100.00;94581.78;5034857;28;20231;-70
2023/10/26 02:07:03;;;;;;;0.60;0.50;;;;;;;12.06;100.00;94585.16;5035112;28;20885;-69
2023/10/26 02:09:30;;;;;;;0.47;0.40;;;;;;;12.08;100.00;94579.66;5035222;28;20231;-70
2023/10/26 02:11:56;;;;;;;0.63;0.30;;;;;;;12.03;100.00;94584.78;5034131;28;21269;-69
2023/10/26 02:14:24;;;;;;;1.23;0.50;;;;;;;12.25;100.00;94581.41;5035574;28;20221;-69
2023/10/26 02:16:51;;;;;;;0.23;0.23;;;;;;;12.13;100.00;94582.41;5035060;28;20197;-69
2023/10/26 02:19:18;;;;;;;1.83;0.63;;;;;;;12.21;100.00;94586.34;5035685;28;20201;-70
2023/10/26 02:21:44;;;;;;;1.07;0.67;;;;;;;12.06;100.00;94587.00;5037744;28;20821;-70
2023/10/26 02:24:11;;;;;;;3.57;0.63;;;;;;;12.27;100.00;94587.25;5038972;28;20221;-70
2023/10/26 02:26:37;;;;;;;0.50;0.50;;;;;;;12.14;100.00;94584.03;5038576;28;20206;-69
2023/10/26 02:29:04;;;;;;;0.30;0.30;;;;;;;12.33;100.00;94584.56;5038570;28;20197;-70
2023/10/26 02:31:31;;;;;;;0.60;0.40;;;;;;;12.16;100.00;94580.13;5038198;28;20209;-70
2023/10/26 02:33:58;;;;;;;1.70;0.60;;;;;;;12.13;100.00;94580.59;5038586;28;20232;-69
2023/10/26 02:36:24;;;;;;;0.77;0.50;;;;;;;12.23;100.00;94572.91;5038844;28;20205;-70
2023/10/26 02:38:51;;;;;;;0.43;0.43;;;;;;;12.19;100.00;94577.84;5037668;28;20201;-69
2023/10/26 02:41:17;;;;;;;0.77;0.40;;;;;;;12.20;100.00;94578.66;5038537;28;20208;-70
2023/10/26 02:43:44;;;;;;;0.30;0.30;;;;;;;12.31;100.00;94591.88;5038154;28;20204;-70
2023/10/26 02:46:11;;;;;;;0.50;0.50;;;;;;;12.16;100.00;94575.66;5038337;28;20201;-70
2023/10/26 02:48:39;;;;;;;0.47;0.47;;;;;;;12.31;100.00;94581.31;5038917;28;20213;-69
2023/10/26 02:51:06;;;;;;;0.80;0.30;;;;;;;12.02;100.00;94575.28;5035167;28;20221;-70
2023/10/26 02:53:33;;;;;;;0.50;0.50;;;;;;;12.02;100.00;94575.28;5037464;28;20240;-69
2023/10/26 02:56:00;;;;;;;0.50;0.50;;;;;;;12.03;100.00;94582.16;5038180;28;20205;-70
2023/10/26 02:58:26;;;;;;;0.73;0.37;;;;;;;11.92;100.00;94588.22;5038400;28;20718;-70
2023/10/26 03:00:54;;;;;;;0.40;0.40;;;;;;;11.97;100.00;94575.94;5036152;28;20209;-70
2023/10/26 03:03:20;;;;;;;0.83;0.50;;;;;;;11.91;100.00;94589.25;5037683;28;20579;-70
2023/10/26 03:05:48;;;;;;;0.30;0.30;;;;;;;12.22;100.00;94582.69;5038196;28;20233;-69
2023/10/26 03:08:15;;;;;;;0.67;0.50;;;;;;;12.08;100.00;94590.22;5037609;28;20212;-69
2023/10/26 03:10:41;;;;;;;0.80;0.50;;;;;;;12.09;100.00;94589.97;5036833;28;20236;-69
2023/10/26 03:13:08;;;;;;;0.43;0.30;;;;;;;11.92;100.00;94591.66;5037591;28;20205;-69
2023/10/26 03:15:35;;;;;;;0.33;0.33;;;;;;;12.02;100.00;94588.50;5037498;28;20225;-69
2023/10/26 03:18:01;;;;;;;0.40;0.40;;;;;;;11.81;100.00;94597.72;5037034;28;20201;-69
2023/10/26 03:20:28;;;;;;;0.40;0.40;;;;;;;11.88;100.00;94594.97;5037882;28;20552;-69
2023/10/26 03:22:56;;;;;;;1.03;0.50;;;;;;;11.97;100.00;94593.63;5036722;28;20564;-69
2023/10/26 03:25:22;;;;;;;0.40;0.40;;;;;;;11.77;100.00;94595.72;5037372;28;20232;-69
2023/10/26 03:27:49;;;;;;;0.40;0.40;;;;;;;11.71;100.00;94593.97;5037025;28;20223;-68
2023/10/26 03:30:17;;;;;;;1.93;0.60;;;;;;;11.76;100.00;94592.28;5037101;28;20232;-69
2023/10/26 03:32:44;;;;;;;1.33;0.70;;;;;;;11.65;100.00;94586.97;5035645;28;20236;-69
2023/10/26 03:35:10;;;;;;;0.30;0.30;;;;;;;11.51;100.00;94587.34;5037016;28;20229;-69
2023/10/26 03:37:37;;;;;;;2.00;1.03;;;;;;;11.65;100.00;94579.06;5037139;28;20215;-68
2023/10/26 03:40:07;;;;;;;1.70;0.40;;;;;;;11.73;100.00;94586.66;5037212;28;20198;-69
2023/10/26 03:42:33;;;;;;;1.23;0.57;;;;;;;11.46;100.00;94585.34;5036617;28;20217;-71
2023/10/26 03:45:00;;;;;;;0.43;0.40;;;;;;;11.48;100.00;94580.69;5036927;28;20232;-71
2023/10/26 03:47:27;;;;;;;0.30;0.30;;;;;;;11.52;100.00;94579.22;5036956;28;20201;-70
2023/10/26 03:49:53;;;;;;;0.30;0.30;;;;;;;11.50;100.00;94580.47;5036305;28;21158;-70
2023/10/26 03:52:20;;;;;;;0.30;0.30;;;;;;;11.53;100.00;94578.19;5037457;28;20208;-70
2023/10/26 03:54:47;;;;;;;0.80;0.50;;;;;;;11.51;100.00;94576.78;5035933;28;20221;-70
2023/10/26 03:57:15;;;;;;;0.40;0.40;;;;;;;11.63;100.00;94571.38;5037361;28;20259;-70
2023/10/26 03:59:42;;;;;;;3.27;0.43;;;;;;;11.29;100.00;94572.97;5036634;28;20659;-70
2023/10/26 04:02:09;;;;;;;0.80;0.63;;;;;;;11.35;100.00;94572.91;5036604;28;20205;-70
2023/10/26 04:04:35;;;;;;;0.73;0.53;;;;;;;11.35;100.00;94572.91;5036271;28;20241;-71
2023/10/26 04:07:02;;;;;;;0.50;0.50;;;;;;;11.35;100.00;94570.25;5037325;28;20206;-70
2023/10/26 04:09:28;;;;;;;0.40;0.40;;;;;;;11.35;100.00;94572.09;5037036;28;20205;-71
2023/10/26 04:11:55;;;;;;;1.17;0.40;;;;;;;11.29;100.00;94575.63;5034785;28;20264;-71
2023/10/26 04:14:23;;;;;;;0.37;0.37;;;;;;;11.43;100.00;94569.16;5036743;28;20224;-71
2023/10/26 04:16:50;;;;;;;0.50;0.50;;;;;;;11.21;100.00;94560.91;5036608;28;20205;-71
2023/10/26 04:19:16;;;;;;;0.63;0.40;;;;;;;11.24;100.00;94565.75;5036508;28;20193;-70
2023/10/26 04:21:43;;;;;;;0.37;0.37;;;;;;;11.21;100.00;94582.00;5035371;28;20212;-71
2023/10/26 04:24:10;;;;;;;0.40;0.40;;;;;;;11.22;100.00;94578.34;5036406;28;20721;-71
2023/10/26 04:26:36;;;;;;;0.70;0.60;;;;;;;11.19;100.00;94584.06;5036195;28;20216;-71
2023/10/26 04:29:05;;;;;;;0.50;0.50;;;;;;;11.21;100.00;94581.19;5035987;28;20201;-70
2023/10/26 04:31:33;;;;;;;0.47;0.47;;;;;;;11.42;100.00;94578.91;5035682;28;20311;-70
2023/10/26 04:33:59;;;;;;;1.40;0.40;;;;;;;11.26;100.00;94591.88;5035621;28;20733;-70
2023/10/26 04:36:26;;;;;;;3.33;0.50;;;;;;;11.11;100.00;94581.72;5036208;28;20204;-71
2023/10/26 04:38:52;;;;;;;0.40;0.40;;;;;;;11.27;100.00;94585.59;5035780;28;20319;-70
2023/10/26 04:41:19;;;;;;;2.23;0.50;;;;;;;11.16;100.00;94581.88;5036315;28;20197;-70
2023/10/26 04:43:45;;;;;;;0.37;0.37;;;;;;;11.21;100.00;94587.25;5035706;28;20215;-70
2023/10/26 04:46:12;;;;;;;0.40;0.40;;;;;;;11.14;100.00;94591.03;5036008;28;20208;-70
2023/10/26 04:48:40;;;;;;;0.40;0.40;;;;;;;11.42;100.00;94586.00;5036030;28;20212;-70
2023/10/26 04:51:08;;;;;;;0.50;0.50;;;;;;;11.20;100.00;94582.22;5035194;28;21317;-70
2023/10/26 04:53:34;;;;;;;0.73;0.60;;;;;;;11.24;100.00;94571.03;5036300;28;20212;-70
2023/10/26 04:56:02;;;;;;;0.57;0.57;;;;;;;11.36;100.00;94569.25;5034912;28;20205;-70
2023/10/26 04:58:28;;;;;;;0.97;0.50;;;;;;;11.30;100.00;94569.31;5036247;28;20197;-70
2023/10/26 05:00:55;;;;;;;0.40;0.40;;;;;;;11.43;100.00;94569.16;5034440;28;21017;-70
2023/10/26 05:03:21;;;;;;;0.87;0.60;;;;;;;11.40;100.00;94561.69;5036073;28;20201;-70
2023/10/26 05:05:49;;;;;;;0.33;0.33;;;;;;;11.59;100.00;94561.47;5035102;28;20225;-70
2023/10/26 05:08:15;;;;;;;1.03;0.50;;;;;;;11.43;100.00;94559.44;5036193;28;20212;-70
2023/10/26 05:10:42;;;;;;;0.63;0.50;;;;;;;11.39;100.00;94562.72;5034638;28;20225;-71
2023/10/26 05:13:10;;;;;;;0.50;0.50;;;;;;;11.63;100.00;94557.34;5035507;28;20201;-70
2023/10/26 05:15:36;;;;;;;0.30;0.30;;;;;;;11.68;100.00;94560.13;5036174;28;20229;-70
2023/10/26 05:18:04;;;;;;;1.03;0.50;;;;;;;11.62;100.00;94547.81;5035054;28;20201;-70
2023/10/26 05:20:32;;;;;;;0.60;0.60;;;;;;;11.77;100.00;94550.88;5034981;28;20193;-70
2023/10/26 05:23:01;;;;;;;0.60;0.60;;;;;;;11.81;100.00;94557.31;5034344;28;20202;-70
2023/10/26 05:25:28;;;;;;;0.50;0.50;;;;;;;11.69;100.00;94554.63;5035302;28;20217;-71
2023/10/26 05:27:54;;;;;;;0.70;0.60;;;;;;;11.75;100.00;94561.66;5034845;28;20231;-71
2023/10/26 05:30:21;;;;;;;0.73;0.63;;;;;;;11.75;100.00;94555.59;5035518;28;20733;-70
2023/10/26 05:32:47;;;;;;;0.63;0.60;;;;;;;11.72;100.00;94559.47;5034476;28;20212;-71
2023/10/26 05:35:14;;;;;;;1.80;0.80;;;;;;;11.63;100.00;94554.72;5035504;28;20237;-70
2023/10/26 05:37:41;;;;;;;1.90;0.50;;;;;;;11.73;100.00;94560.28;5035315;28;20243;-71
2023/10/26 05:40:10;;;;;;;0.80;0.80;;;;;;;11.99;100.00;94552.78;5035359;28;20564;-70
2023/10/26 05:42:36;;;;;;;1.57;0.90;;;;;;;11.84;100.00;94556.88;5035315;28;21111;-70
2023/10/26 05:45:03;;;;;;;1.40;0.77;;;;;;;11.73;100.00;94549.72;5035197;28;20225;-71
2023/10/26 05:47:30;;;;;;;1.23;0.93;;;;;;;11.74;100.00;94541.56;5035140;28;20197;-72
2023/10/26 05:49:56;;;;;;;1.10;0.77;;;;;;;11.89;100.00;94551.69;5034634;28;20205;-71
2023/10/26 05:52:23;;;;;;;3.53;0.73;;;;;;;11.94;100.00;94546.56;5035423;28;20571;-71
2023/10/26 05:54:50;;;;;;;0.93;0.83;;;;;;;11.95;100.00;94550.81;5036173;28;20221;-71
2023/10/26 05:57:17;;;;;;;1.47;0.97;;;;;;;12.11;100.00;94552.81;5039220;28;20747;-71
2023/10/26 05:59:44;;;;;;;1.23;1.03;;;;;;;11.92;100.00;94553.91;5038441;28;20205;-72
2023/10/26 06:02:10;;;;;;;0.80;0.57;;;;;;;11.82;100.00;94548.38;5038731;28;20201;-70
2023/10/26 06:04:37;;;;;;;2.23;0.93;;;;;;;11.87;100.00;94551.94;5038609;28;20229;-71
2023/10/26 06:07:04;;;;;;;1.00;0.90;;;;;;;11.96;100.00;94555.84;5039510;28;20216;-71
2023/10/26 06:09:30;;;;;;;1.30;0.70;;;;;;;11.96;100.00;94549.78;5039123;28;20208;-71
2023/10/26 06:11:57;;;;;;;0.70;0.70;;;;;;;12.04;100.00;94549.47;5038352;28;20878;-72
2023/10/26 06:14:25;;;;;;;0.60;0.60;;;;;;;12.26;100.00;94546.06;5039037;28;20224;-71
2023/10/26 06:16:51;;;;;;;1.00;0.80;;;;;;;12.20;100.00;94542.47;5038880;28;20232;-71
2023/10/26 06:19:18;;;;;;;0.50;0.50;;;;;;;12.17;100.00;94532.38;5038898;28;20201;-71
2023/10/26 06:21:44;;;;;;;0.70;0.70;;;;;;;12.15;100.00;94538.13;5038411;28;20205;-71
2023/10/26 06:24:11;;;;;;;0.83;0.80;;;;;;;12.17;100.00;94537.66;5038316;28;20225;-72
2023/10/26 06:26:37;;;;;;;1.17;1.00;;;;;;;12.28;100.00;94530.78;5038877;28;20587;-71
2023/10/26 06:29:04;;;;;;;0.70;0.70;;;;;;;12.24;100.00;94538.38;5038362;28;20202;-70
2023/10/26 06:31:32;;;;;;;2.23;0.87;;;;;;;12.47;100.00;94533.09;5038322;28;20256;-71
2023/10/26 06:33:58;;;;;;;1.40;0.80;;;;;;;12.22;100.00;94529.88;5037393;28;20241;-71
2023/10/26 06:36:25;;;;;;;1.30;0.80;;;;;;;12.29;100.00;94525.28;5038854;28;20205;-72
2023/10/26 06:38:54;;;;;;;1.10;0.67;;;;;;;12.41;100.00;94527.91;5037646;28;20216;-72
2023/10/26 06:41:20;;;;;;;0.80;0.63;;;;;;;12.12;100.00;94538.56;5038670;28;20204;-71
2023/10/26 06:43:47;;;;;;;1.33;1.00;;;;;;;12.18;100.00;94534.00;5038040;28;20205;-71
2023/10/26 06:46:13;;;;;;;2.03;1.07;;;;;;;12.32;100.00;94534.56;5038143;28;20201;-71
2023/10/26 06:48:41;;;;;;;3.73;1.20;;;;;;;12.64;100.00;94544.59;5037635;28;20208;-71
2023/10/26 06:51:07;;;;;;;2.07;1.30;;;;;;;12.20;100.00;94542.47;5037501;28;20718;-71
2023/10/26 06:53:34;;;;;;;3.47;1.43;;;;;;;12.26;100.00;94532.88;5037946;28;20220;-71
2023/10/26 06:56:01;;;;;;;3.80;1.10;;;;;;;12.32;100.00;94545.97;5037539;28;20205;-71
2023/10/26 06:58:27;;;;;;;3.10;1.27;;;;;;;12.52;100.00;94541.13;5037810;28;20206;-71
2023/10/26 07:00:54;;;;;;;3.13;1.23;;;;;;;12.64;100.00;94539.31;5036251;28;20312;-71
2023/10/26 07:03:21;;;;;;;1.53;0.80;;;;;;;12.63;100.00;94527.13;5039389;28;20559;-71
2023/10/26 07:05:49;;;;;;;2.67;1.13;;;;;;;12.78;100.00;94530.13;5037322;28;20587;-71
2023/10/26 07:08:15;;;;;;;2.40;0.80;;;;;;;12.75;100.00;94529.78;5037413;28;20217;-71
2023/10/26 07:10:42;;;;;;;1.37;0.97;;;;;;;12.81;100.00;94534.94;5036982;28;20730;-71
2023/10/26 07:13:09;;;;;;;3.07;1.00;;;;;;;12.85;100.00;94536.91;5038301;28;20204;-71
2023/10/26 07:15:36;;;;;;;3.40;1.30;;;;;;;12.99;100.00;94537.47;5036964;28;20792;-72
2023/10/26 07:18:03;;;;;;;3.33;1.30;;;;;;;13.00;100.00;94547.03;5037755;28;20234;-72
2023/10/26 07:20:30;;;;;;;3.13;1.00;;;;;;;13.07;100.00;94547.69;5037414;28;20201;-71
2023/10/26 07:22:58;;;;;;;2.50;1.37;;;;;;;13.09;100.00;94550.91;5036975;28;20215;-70
2023/10/26 07:25:24;;;;;;;4.53;1.30;;;;;;;12.83;100.00;94554.03;5037793;28;20221;-72
2023/10/26 07:27:51;;;;;;;3.63;1.80;;;;;;;13.05;100.00;94557.72;5036966;28;20209;-72
2023/10/26 07:30:18;;;;;;;2.97;1.57;;;;;;;12.99;100.00;94554.13;5036862;28;20205;-71
2023/10/26 07:32:44;;;;;;;1.40;0.90;;;;;;;13.02;100.00;94542.28;5036973;28;20225;-71
2023/10/26 07:35:11;;;;;;;2.47;1.20;;;;;;;13.12;100.00;94547.78;5037243;28;20236;-72
2023/10/26 07:37:38;;;;;;;1.83;1.27;;;;;;;13.22;100.00;94542.72;5036631;28;20209;-71
2023/10/26 07:40:07;;;;;;;1.77;0.90;;;;;;;13.29;100.00;94538.91;5036734;28;20204;-72
2023/10/26 07:42:34;;;;;;;1.10;1.00;;;;;;;13.16;100.00;94539.19;5037083;28;20205;-71
2023/10/26 07:45:00;;;;;;;1.10;0.97;;;;;;;13.28;100.00;94542.59;5037095;28;20798;-72
2023/10/26 07:47:27;;;;;;;1.30;0.93;;;;;;;13.31;100.00;94534.19;5037082;28;20675;-72
2023/10/26 07:49:53;;;;;;;1.37;0.97;;;;;;;13.60;100.00;94536.59;5037016;28;20208;-72
2023/10/26 07:52:20;;;;;;;1.63;1.00;;;;;;;14.02;100.00;94532.63;5036695;28;20217;-71
2023/10/26 07:54:47;;;;;;;2.03;1.23;;;;;;;14.01;100.00;94538.94;5037168;28;20225;-72
2023/10/26 07:57:15;;;;;;;1.87;1.17;;;;;;;14.16;100.00;94537.41;5036956;28;20201;-72
2023/10/26 07:59:41;;;;;;;2.83;1.23;;;;;;;13.81;100.00;94538.59;5036198;28;20205;-72
2023/10/26 08:02:08;;;;;;;1.50;0.90;;;;;;;13.77;100.00;94549.91;5036626;28;20197;-72
2023/10/26 08:04:34;;;;;;;1.70;1.10;;;;;;;13.72;100.00;94541.84;5036675;28;20319;-73
2023/10/26 08:07:01;;;;;;;1.50;0.93;;;;;;;13.60;100.00;94541.91;5035653;28;20672;-71
2023/10/26 08:09:32;;;;;;;2.07;1.27;;;;;;;13.93;100.00;94542.00;5036874;28;20715;-73
2023/10/26 08:11:59;;;;;;;1.87;1.10;;;;;;;13.72;100.00;94544.50;5035040;28;20716;-71
2023/10/26 08:14:29;;;;;;;1.33;1.00;;;;;;;14.01;100.00;94539.78;5037315;28;20213;-72
2023/10/26 08:16:57;;;;;;;4.10;1.10;;;;;;;13.75;100.00;94542.19;5036327;28;20212;-70
2023/10/26 08:19:24;;;;;;;2.57;1.30;;;;;;;13.60;100.00;94552.47;5036423;28;20282;-70
2023/10/26 08:21:50;;;;;;;1.43;1.30;;;;;;;13.68;100.00;94559.25;5034644;28;20278;-71
2023/10/26 08:24:17;;;;;;;3.37;1.83;;;;;;;13.80;100.00;94550.22;5036654;28;20229;-70
2023/10/26 08:26:43;;;;;;;3.17;1.40;;;;;;;13.76;100.00;94535.88;5035089;28;20718;-69
2023/10/26 08:29:10;;;;;;;4.27;1.73;;;;;;;13.93;100.00;94546.50;5032315;28;21186;-70
2023/10/26 08:31:39;;;;;;;4.23;2.00;;;;;;;14.08;100.00;94544.94;5033863;28;20229;-70
2023/10/26 08:34:06;;;;;;;3.07;1.20;;;;;;;13.79;100.00;94540.69;5033553;28;20228;-69
2023/10/26 08:36:33;;;;;;;3.60;1.77;;;;;;;13.95;100.00;94544.41;5033695;28;20209;-70
2023/10/26 08:39:00;;;;;;;6.40;2.30;;;;;;;13.90;100.00;94542.47;5032814;28;20209;-70
2023/10/26 08:41:32;;;;;;;7.17;2.33;;;;;;;14.04;100.00;94549.09;5033765;28;20621;-70
2023/10/26 08:43:59;;;;;;;5.10;1.93;;;;;;;13.99;100.00;94541.84;5033275;28;20225;-71
2023/10/26 08:46:28;;;;;;;3.53;1.63;;;;;;;14.18;100.00;94529.22;5034040;28;20208;-71
2023/10/26 08:48:57;;;;;;;2.37;1.50;;;;;;;14.25;100.00;94530.66;5033458;28;20218;-70
2023/10/26 08:51:24;;;;;;;1.67;1.00;;;;;;;14.16;100.00;94533.97;5033782;28;20221;-71
2023/10/26 08:53:50;;;;;;;2.60;1.10;;;;;;;14.11;100.00;94534.66;5033504;28;20864;-70
2023/10/26 08:56:20;;;;;;;0.90;0.77;;;;;;;14.29;100.00;94544.25;5033393;28;20200;-70
2023/10/26 08:58:47;;;;;;;1.13;0.80;;;;;;;14.28;100.00;94537.31;5033621;28;20208;-70
2023/10/26 09:01:14;;;;;;;3.43;0.90;;;;;;;14.32;100.00;94535.78;5033320;28;20718;-70
2023/10/26 09:03:41;;;;;;;0.50;0.50;;;;;;;14.57;100.00;94537.00;5032776;28;20207;-71
2023/10/26 09:06:09;;;;;;;0.87;0.80;;;;;;;14.65;100.00;94529.47;5033286;28;20209;-72
2023/10/26 09:08:36;;;;;;;1.47;0.80;;;;;;;14.66;100.00;94539.03;5033978;28;20215;-70
2023/10/26 09:11:20;;;;;;;0.60;0.53;;;;;;;14.75;100.00;94550.81;5033740;28;20205;-71
2023/10/26 09:13:47;;;;;;;2.17;0.80;;;;;;;14.57;100.00;94554.78;5034316;28;20391;-69
2023/10/26 09:16:13;;;;;;;0.97;0.77;;;;;;;14.64;100.00;94559.66;5034453;28;20228;-69
2023/10/26 09:18:40;;;;;;;1.70;0.67;;;;;;;14.71;100.00;94551.53;5033887;28;20690;-70
2023/10/26 09:21:10;;;;;;;0.90;0.70;;;;;;;14.91;100.00;94544.69;5034148;28;20208;-69
2023/10/26 09:23:39;;;;;;;1.20;0.70;;;;;;;14.89;100.00;94538.84;5034244;28;20315;-69
2023/10/26 09:26:08;;;;;;;0.68;0.57;;;;;;;15.13;100.00;94529.59;5034662;28;20660;-70
2023/10/26 09:28:48;;;;;;;0.63;0.63;;;;;;;15.29;100.00;94513.66;5033907;28;21127;-71
2023/10/26 09:31:15;;;;;;;2.00;1.00;;;;;;;15.14;100.00;94530.41;5037054;28;20204;-70
2023/10/26 09:33:41;;;;;;;0.50;0.50;;;;;;;15.01;100.00;94539.53;5038940;28;20212;-71
2023/10/26 09:36:13;;;;;;;0.67;0.60;;;;;;;15.23;100.00;94532.41;5036600;28;20209;-70
2023/10/26 09:38:41;;;;;;;1.63;0.70;;;;;;;15.23;100.00;94537.72;5037124;28;20678;-71
2023/10/26 09:41:11;;;;;;;0.80;0.80;;;;;;;15.16;100.00;94533.63;5036611;28;20231;-70
2023/10/26 09:43:38;;;;;;;1.15;0.73;;;;;;;14.80;100.00;94540.28;5037367;28;20213;-71
2023/10/26 09:46:05;;;;;;;0.50;0.50;;;;;;;14.96;100.00;94536.00;5037151;28;20671;-72
2023/10/26 09:48:32;;;;;;;2.15;0.80;;;;;;;15.14;100.00;94541.81;5037602;28;20506;-72
2023/10/26 09:51:01;;;;;;;2.50;0.70;;;;;;;15.18;100.00;94542.94;5037165;28;20209;-70
2023/10/26 09:53:33;;;;;;;0.70;0.70;;;;;;;15.30;100.00;94543.69;5037160;28;20307;-71
2023/10/26 09:56:03;;;;;;;0.70;0.53;;;;;;;15.24;100.00;94548.09;5037303;28;20221;-70
2023/10/26 09:58:35;;;;;;;1.30;0.90;;;;;;;15.16;100.00;94544.22;5037220;28;20197;-70
2023/10/26 10:01:02;;;;;;;1.10;0.90;;;;;;;14.98;100.00;94547.97;5036427;28;20209;-71
2023/10/26 10:03:29;;;;;;;2.17;1.30;;;;;;;14.95;100.00;94548.44;5037101;28;20251;-70
2023/10/26 10:05:56;;;;;;;1.45;0.88;;;;;;;14.93;100.00;94537.31;5037062;28;20247;-70
2023/10/26 10:09:01;;;;;;;2.23;1.33;;;;;;;15.14;100.00;94551.66;5037011;28;20995;-70
2023/10/26 10:11:28;;;;;;;2.67;1.80;;;;;;;14.80;100.00;94550.09;5036626;28;20312;-70
2023/10/26 10:13:54;;;;;;;2.27;1.73;;;;;;;14.82;100.00;94550.66;5037077;28;20216;-71
2023/10/26 10:16:54;;;;;;;1.97;1.40;;;;;;;15.10;100.00;94540.72;5036899;28;20616;-71
2023/10/26 10:19:22;;;;;;;1.55;1.33;;;;;;;15.00;100.00;94553.81;5036605;28;20209;-72
2023/10/26 10:21:51;;;;;;;1.48;0.60;;;;;;;14.96;100.00;94550.06;5036462;28;20201;-70
2023/10/26 10:24:53;;;;;;;0.50;0.50;;;;;;;15.18;100.00;94519.06;5036432;28;20308;-70
2023/10/26 10:27:19;;;;;;;2.27;1.17;;;;;;;14.93;100.00;94492.22;5036819;28;20215;-72
2023/10/26 10:29:46;;;;;;;1.43;0.83;;;;;;;15.05;100.00;94484.16;5037269;28;20205;-70
2023/10/26 10:32:13;;;;;;;0.50;0.50;;;;;;;15.14;100.00;94494.06;5035868;28;20283;-70
2023/10/26 10:34:44;;;;;;;1.05;0.60;;;;;;;15.45;100.00;94485.44;5037225;28;20229;-70
2023/10/26 10:37:17;;;;;;;0.80;0.70;;;;;;;15.41;100.00;94487.81;5036769;28;20193;-71
2023/10/26 10:40:11;;;;;;;2.67;1.45;;;;;;;15.60;100.00;94477.66;5036110;28;20590;-70
2023/10/26 10:42:38;;;;;;;3.90;1.77;;;;;;;15.43;100.00;94471.63;5037050;28;20201;-71
2023/10/26 10:45:07;;;;;;;2.65;1.50;;;;;;;15.69;100.00;94470.84;5037341;28;20217;-72
2023/10/26 10:47:33;;;;;;;3.05;1.50;;;;;;;15.84;100.00;94468.34;5036890;28;20224;-70
2023/10/26 10:50:16;;;;;;;1.40;0.98;;;;;;;16.04;100.00;94464.81;5036541;28;20205;-70
2023/10/26 10:52:43;;;;;;;0.68;0.68;;;;;;;15.90;100.00;94471.59;5037359;28;20229;-70
2023/10/26 10:55:11;;;;;;;0.60;0.50;;;;;;;15.98;100.00;94465.81;5036299;28;20750;-70
2023/10/26 10:57:52;;;;;;;0.70;0.65;;;;;;;16.39;100.00;94467.78;5036968;28;20587;-71
2023/10/26 11:00:19;;;;;;;0.70;0.60;;;;;;;16.33;100.00;94460.84;5035885;28;20205;-72
2023/10/26 11:02:46;;;;;;;0.93;0.90;;;;;;;16.37;100.00;94464.59;5037192;28;20201;-70
2023/10/26 11:05:13;;;;;;;1.27;0.98;;;;;;;16.37;100.00;94461.94;5036375;28;20232;-72
2023/10/26 11:07:39;;;;;;;0.63;0.63;;;;;;;16.47;100.00;94464.69;5037358;28;20209;-71
2023/10/26 11:10:07;;;;;;;0.70;0.70;;;;;;;16.46;100.00;94468.38;5036978;28;20209;-72
2023/10/26 11:12:35;;;;;;;0.80;0.80;;;;;;;16.62;100.00;94475.38;5036615;28;20220;-70
2023/10/26 11:15:03;;;;;;;0.85;0.50;;;;;;;16.08;100.00;94475.75;5037086;28;20247;-70
2023/10/26 11:17:31;;;;;;;1.00;0.70;;;;;;;16.34;100.00;94469.59;5036870;28;20286;-72
2023/10/26 11:19:57;;;;;;;0.70;0.70;;;;;;;16.45;100.00;94464.13;5036935;28;20212;-71
2023/10/26 11:22:24;;;;;;;0.63;0.60;;;;;;;16.19;100.00;94454.31;5036252;28;20201;-72
2023/10/26 11:24:51;;;;;;;0.82;0.50;;;;;;;16.45;100.00;94445.50;5036372;28;20224;-71
2023/10/26 11:27:19;;;;;;;1.05;0.65;;;;;;;16.87;100.00;94435.66;5036475;28;20272;-70